Time;durP1;ratioP1;P1;durP2;ratioP2;P2;SDS_P1;SDS_P2;PMS_P1;PMS_P2;Temp;Humidity;BMP_temperature;BMP_pressure;BME280_temperature;BME280_humidity;BME280_pressure;Samples;Min_cycle;Max_cycle;Signal;HPM_P1;HPM_P2
2022/05/06 00:00:11;;;;;;;16.65;10.80;;;;;17.60;102389.00;;;;5052775;28;20195;-77
2022/05/06 00:02:38;;;;;;;15.07;10.60;;;;;17.50;102384.00;;;;5068534;28;20297;-77
2022/05/06 00:05:06;;;;;;;14.98;9.88;;;;;17.50;102386.00;;;;5068618;28;20260;-78
2022/05/06 00:07:37;;;;;;;16.98;10.52;;;;;17.50;102396.00;;;;5068638;28;20203;-78
2022/05/06 00:10:05;;;;;;;18.33;11.88;;;;;17.50;102382.00;;;;5067701;28;20622;-78
2022/05/06 00:12:33;;;;;;;13.93;9.25;;;;;17.40;102389.00;;;;5068526;28;20230;-79
2022/05/06 00:15:02;;;;;;;13.50;9.65;;;;;17.40;102392.00;;;;5059979;28;20211;-77
2022/05/06 00:17:29;;;;;;;17.02;10.35;;;;;17.40;102396.00;;;;5051274;28;20210;-78
2022/05/06 00:19:56;;;;;;;13.65;9.00;;;;;17.40;102384.00;;;;5063235;28;20209;-78
2022/05/06 00:22:24;;;;;;;18.67;11.95;;;;;17.40;102388.00;;;;5048088;28;20199;-78
2022/05/06 00:24:51;;;;;;;14.82;9.35;;;;;17.40;102383.00;;;;5048026;28;20196;-78
2022/05/06 00:27:19;;;;;;;16.23;10.20;;;;;17.30;102385.00;;;;5048043;28;20199;-78
2022/05/06 00:29:47;;;;;;;16.65;9.13;;;;;17.30;102384.00;;;;5048444;28;20229;-77
2022/05/06 00:32:15;;;;;;;17.67;9.75;;;;;17.30;102381.00;;;;5059114;28;20746;-78
2022/05/06 00:34:42;;;;;;;15.75;9.52;;;;;17.30;102376.00;;;;5070362;28;20213;-78
2022/05/06 00:37:09;;;;;;;15.48;9.20;;;;;17.30;102378.00;;;;5071975;28;20704;-78
2022/05/06 00:39:37;;;;;;;12.43;8.13;;;;;17.30;102382.00;;;;5070980;28;20199;-78
2022/05/06 00:42:05;;;;;;;14.32;9.05;;;;;17.30;102381.00;;;;5052060;28;20210;-78
2022/05/06 00:44:32;;;;;;;12.90;8.90;;;;;17.30;102385.00;;;;5051689;28;20207;-77
2022/05/06 00:47:00;;;;;;;14.38;7.57;;;;;17.20;102374.00;;;;5052093;28;20207;-76
2022/05/06 00:49:29;;;;;;;12.88;7.75;;;;;17.20;102374.00;;;;5051208;28;20222;-77
2022/05/06 00:51:56;;;;;;;11.98;7.25;;;;;17.20;102370.00;;;;5055398;28;20289;-77
2022/05/06 00:54:24;;;;;;;11.63;7.78;;;;;17.20;102374.00;;;;5051498;28;20253;-77
2022/05/06 00:56:53;;;;;;;14.10;7.55;;;;;17.10;102366.00;;;;5051252;28;20290;-77
2022/05/06 00:59:21;;;;;;;13.85;7.53;;;;;17.10;102371.00;;;;5051096;28;20755;-77
2022/05/06 01:01:48;;;;;;;11.85;7.32;;;;;17.10;102374.00;;;;5051261;28;20196;-77
2022/05/06 01:04:17;;;;;;;11.35;7.30;;;;;17.10;102365.00;;;;5051255;28;20666;-77
2022/05/06 01:06:46;;;;;;;12.07;7.03;;;;;17.10;102364.00;;;;5051322;28;20233;-77
2022/05/06 01:09:15;;;;;;;11.55;7.55;;;;;17.10;102376.00;;;;5051863;28;20250;-77
2022/05/06 01:11:43;;;;;;;11.10;7.55;;;;;17.10;102375.00;;;;5067111;28;20219;-77
2022/05/06 01:14:11;;;;;;;13.93;7.78;;;;;17.10;102382.00;;;;5069541;28;20583;-77
2022/05/06 01:16:38;;;;;;;17.60;8.27;;;;;17.00;102378.00;;;;5051504;28;20203;-77
2022/05/06 01:19:06;;;;;;;12.73;7.47;;;;;17.10;102382.00;;;;5069729;28;20214;-77
2022/05/06 01:21:39;;;;;;;14.15;7.40;;;;;17.00;102383.00;;;;5071052;28;20282;-77
2022/05/06 01:24:08;;;;;;;13.30;7.47;;;;;17.00;102388.00;;;;5071964;28;20203;-77
2022/05/06 01:27:00;;;;;;;20.13;7.75;;;;;16.90;102391.00;;;;5058463;28;20207;-77
2022/05/06 01:29:29;;;;;;;14.43;7.07;;;;;17.00;102387.00;;;;5050808;28;20195;-77
2022/05/06 01:31:56;;;;;;;14.13;7.95;;;;;17.00;102391.00;;;;5051056;28;20620;-77
2022/05/06 01:34:26;;;;;;;12.45;7.85;;;;;17.00;102391.00;;;;5050621;28;20673;-77
2022/05/06 01:36:55;;;;;;;14.38;7.97;;;;;17.00;102394.00;;;;5050869;28;20246;-77
2022/05/06 01:39:29;;;;;;;11.18;7.53;;;;;16.90;102392.00;;;;5050673;28;20192;-77
2022/05/06 01:42:00;;;;;;;14.30;8.77;;;;;17.00;102397.00;;;;5050639;28;20204;-77
2022/05/06 01:44:31;;;;;;;18.63;8.57;;;;;17.00;102394.00;;;;5050457;28;20270;-77
2022/05/06 01:47:01;;;;;;;14.95;8.07;;;;;17.00;102398.00;;;;5050590;28;20406;-78
2022/05/06 01:49:30;;;;;;;15.32;8.68;;;;;17.00;102401.00;;;;5050221;28;20191;-77
2022/05/06 01:52:00;;;;;;;13.50;7.90;;;;;17.00;102389.00;;;;5051362;28;20223;-77
2022/05/06 01:54:30;;;;;;;13.27;8.68;;;;;17.00;102394.00;;;;5050951;28;20194;-77
2022/05/06 01:56:59;;;;;;;15.98;8.40;;;;;17.00;102395.00;;;;5050230;28;20215;-77
2022/05/06 01:59:26;;;;;;;10.65;6.65;;;;;17.00;102398.00;;;;5050521;28;20211;-77
2022/05/06 02:01:55;;;;;;;17.40;7.18;;;;;17.00;102393.00;;;;5070950;28;20199;-78
2022/05/06 02:07:07;;;;;;;11.40;7.07;;;;;17.00;102394.00;;;;5069281;28;20268;-77
2022/05/06 02:09:35;;;;;;;12.35;7.85;;;;;17.00;102391.00;;;;5055508;28;20192;-77
2022/05/06 02:12:03;;;;;;;11.88;6.88;;;;;17.10;102396.00;;;;5062741;28;20234;-77
2022/05/06 02:14:31;;;;;;;12.90;6.68;;;;;17.10;102393.00;;;;5069242;28;20268;-77
2022/05/06 02:16:58;;;;;;;9.35;5.20;;;;;17.10;102390.00;;;;5069121;28;20206;-77
2022/05/06 02:19:25;;;;;;;7.30;5.72;;;;;17.10;102382.00;;;;5069761;28;20199;-77
2022/05/06 02:21:52;;;;;;;9.90;5.95;;;;;17.10;102376.00;;;;5069690;28;20195;-77
2022/05/06 02:24:20;;;;;;;7.82;5.25;;;;;17.00;102378.00;;;;5070048;28;20211;-77
2022/05/06 02:26:48;;;;;;;8.98;5.55;;;;;17.00;102390.00;;;;5069746;28;20739;-77
2022/05/06 02:29:15;;;;;;;9.38;5.63;;;;;17.00;102374.00;;;;5050454;28;20200;-77
2022/05/06 02:34:27;;;;;;;8.38;4.90;;;;;17.00;102388.00;;;;5060106;28;20214;-77
2022/05/06 02:36:55;;;;;;;7.70;4.47;;;;;17.00;102390.00;;;;5069279;28;20657;-77
2022/05/06 02:39:22;;;;;;;9.93;5.03;;;;;17.00;102386.00;;;;5050055;28;20203;-77
2022/05/06 02:41:51;;;;;;;8.43;4.40;;;;;17.00;102377.00;;;;5049411;28;20200;-77
2022/05/06 02:44:18;;;;;;;6.40;4.88;;;;;17.00;102385.00;;;;5049250;28;20222;-77
2022/05/06 02:46:46;;;;;;;6.57;4.63;;;;;17.00;102393.00;;;;5049533;28;20573;-77
2022/05/06 02:49:13;;;;;;;8.63;5.38;;;;;16.90;102389.00;;;;5050462;28;20196;-77
2022/05/06 02:51:40;;;;;;;8.02;5.07;;;;;16.90;102394.00;;;;5056092;28;20224;-77
2022/05/06 02:54:08;;;;;;;7.25;5.40;;;;;16.90;102391.00;;;;5048896;28;20306;-77
2022/05/06 02:56:35;;;;;;;9.18;5.88;;;;;16.90;102400.00;;;;5049336;28;20637;-77
2022/05/06 02:59:05;;;;;;;8.93;5.30;;;;;16.90;102397.00;;;;5063452;28;20195;-77
2022/05/06 03:01:32;;;;;;;9.20;5.25;;;;;16.90;102395.00;;;;5052079;28;20290;-77
2022/05/06 03:03:59;;;;;;;8.30;5.35;;;;;16.90;102393.00;;;;5049170;28;20203;-77
2022/05/06 03:06:26;;;;;;;7.35;5.47;;;;;16.90;102384.00;;;;5049496;28;20203;-77
2022/05/06 03:08:53;;;;;;;8.80;5.45;;;;;16.90;102383.00;;;;5049158;28;20195;-77
2022/05/06 03:11:21;;;;;;;8.90;4.88;;;;;16.90;102396.00;;;;5055970;28;20280;-77
2022/05/06 03:13:48;;;;;;;9.80;5.65;;;;;16.90;102393.00;;;;5069555;28;20249;-77
2022/05/06 03:16:16;;;;;;;9.55;6.20;;;;;16.80;102388.00;;;;5050298;28;20204;-77
2022/05/06 03:18:43;;;;;;;7.80;5.05;;;;;16.90;102395.00;;;;5049322;28;20210;-77
2022/05/06 03:21:11;;;;;;;9.32;5.32;;;;;16.90;102393.00;;;;5048779;28;20195;-78
2022/05/06 03:23:38;;;;;;;7.93;6.13;;;;;16.90;102394.00;;;;5048035;28;20693;-78
2022/05/06 03:26:05;;;;;;;8.65;5.97;;;;;16.90;102390.00;;;;5065931;28;20297;-77
2022/05/06 03:28:33;;;;;;;9.48;5.75;;;;;16.90;102387.00;;;;5058685;28;20203;-77
2022/05/06 03:31:00;;;;;;;7.55;5.82;;;;;16.90;102390.00;;;;5048858;28;20202;-77
2022/05/06 03:33:30;;;;;;;9.02;6.03;;;;;16.90;102388.00;;;;5048750;28;20211;-77
2022/05/06 03:35:58;;;;;;;9.00;5.82;;;;;16.90;102389.00;;;;5048632;28;20228;-77
2022/05/06 03:38:25;;;;;;;8.00;5.65;;;;;16.90;102385.00;;;;5048463;28;20203;-77
2022/05/06 03:40:52;;;;;;;7.32;5.30;;;;;16.90;102386.00;;;;5049103;28;20199;-78
2022/05/06 03:43:19;;;;;;;10.18;5.70;;;;;16.90;102386.00;;;;5067161;28;20199;-78
2022/05/06 03:45:47;;;;;;;10.52;6.13;;;;;16.90;102385.00;;;;5067888;28;20238;-77
2022/05/06 03:48:14;;;;;;;9.07;6.30;;;;;16.90;102381.00;;;;5048433;28;20204;-77
2022/05/06 03:53:27;;;;;;;8.82;5.68;;;;;16.90;102386.00;;;;5048989;28;20230;-77
2022/05/06 03:55:55;;;;;;;8.02;5.30;;;;;16.90;102375.00;;;;5048702;28;20298;-77
2022/05/06 03:58:22;;;;;;;7.45;5.05;;;;;16.90;102385.00;;;;5048882;28;21284;-77
2022/05/06 04:00:49;;;;;;;9.60;5.47;;;;;16.90;102384.00;;;;5059385;28;20191;-77
2022/05/06 04:03:16;;;;;;;8.90;5.32;;;;;16.90;102388.00;;;;5068141;28;20702;-77
2022/05/06 04:05:45;;;;;;;6.80;4.13;;;;;16.90;102390.00;;;;5068749;28;20614;-77
2022/05/06 04:08:12;;;;;;;9.25;4.38;;;;;16.90;102389.00;;;;5070973;28;20191;-76
2022/05/06 04:10:39;;;;;;;7.57;4.55;;;;;16.90;102393.00;;;;5072079;28;20209;-77
2022/05/06 04:13:07;;;;;;;7.03;4.70;;;;;16.90;102395.00;;;;5061928;28;20277;-76
2022/05/06 04:15:35;;;;;;;7.97;4.53;;;;;17.00;102395.00;;;;5052761;28;20203;-77
2022/05/06 04:18:03;;;;;;;12.48;4.55;;;;;17.00;102394.00;;;;5052358;28;20207;-77
2022/05/06 04:23:32;;;;;;;5.18;3.42;;;;;16.90;102390.00;;;;5051793;28;20317;-78
2022/05/06 04:26:00;;;;;;;5.70;3.60;;;;;16.90;102393.00;;;;5051779;28;20276;-78
2022/05/06 04:28:28;;;;;;;5.28;4.07;;;;;16.80;102399.00;;;;5056724;28;20203;-78
2022/05/06 04:30:56;;;;;;;3.60;2.97;;;;;16.80;102395.00;;;;5072211;28;20211;-77
2022/05/06 04:33:25;;;;;;;6.13;3.38;;;;;16.80;102403.00;;;;5061568;28;20314;-78
2022/05/06 04:35:53;;;;;;;5.82;3.38;;;;;16.80;102400.00;;;;5050596;28;20266;-78
2022/05/06 04:38:23;;;;;;;3.95;3.15;;;;;16.80;102400.00;;;;5052182;28;20483;-78
2022/05/06 04:40:51;;;;;;;4.88;3.17;;;;;16.80;102399.00;;;;5051238;28;20720;-78
2022/05/06 04:43:20;;;;;;;4.15;3.22;;;;;16.80;102405.00;;;;5051408;28;20210;-78
2022/05/06 04:45:48;;;;;;;3.95;2.70;;;;;16.70;102409.00;;;;5051255;28;20273;-78
2022/05/06 04:48:16;;;;;;;4.00;3.22;;;;;16.70;102413.00;;;;5051259;28;20200;-78
2022/05/06 04:50:44;;;;;;;5.88;3.30;;;;;16.70;102409.00;;;;5051588;28;20210;-79
2022/05/06 04:53:13;;;;;;;4.90;3.42;;;;;16.70;102411.00;;;;5057809;28;20305;-78
2022/05/06 04:55:43;;;;;;;7.72;3.65;;;;;16.70;102410.00;;;;5071317;28;20202;-78
2022/05/06 04:58:11;;;;;;;5.85;3.20;;;;;16.70;102411.00;;;;5071261;28;20199;-79
2022/05/06 05:00:38;;;;;;;3.55;2.78;;;;;16.70;102410.00;;;;5066162;28;20195;-78
2022/05/06 05:03:05;;;;;;;6.00;2.80;;;;;16.60;102417.00;;;;5070432;28;20260;-77
2022/05/06 05:05:33;;;;;;;3.30;2.35;;;;;16.60;102416.00;;;;5070901;28;20191;-77
2022/05/06 05:08:00;;;;;;;2.95;2.17;;;;;16.60;102421.00;;;;5054936;28;20208;-77
2022/05/06 05:10:27;;;;;;;3.67;2.78;;;;;16.60;102416.00;;;;5050388;28;20290;-78
2022/05/06 05:12:56;;;;;;;4.00;2.92;;;;;16.60;102422.00;;;;5050764;28;20223;-77
2022/05/06 05:15:23;;;;;;;3.70;2.85;;;;;16.60;102416.00;;;;5050537;28;20196;-77
2022/05/06 05:17:51;;;;;;;6.43;3.10;;;;;16.50;102417.00;;;;5051614;28;20351;-77
2022/05/06 05:20:18;;;;;;;3.45;2.80;;;;;16.50;102419.00;;;;5069677;28;20199;-78
2022/05/06 05:22:45;;;;;;;4.50;3.17;;;;;16.50;102418.00;;;;5069638;28;20676;-78
2022/05/06 05:25:13;;;;;;;4.07;2.63;;;;;16.50;102407.00;;;;5069364;28;20637;-78
2022/05/06 05:27:40;;;;;;;5.72;2.88;;;;;16.50;102409.00;;;;5070580;28;20286;-77
2022/05/06 05:30:11;;;;;;;3.90;3.05;;;;;16.50;102412.00;;;;5067881;28;20217;-78
2022/05/06 05:32:39;;;;;;;3.08;2.35;;;;;16.60;102420.00;;;;5050108;28;20238;-78
2022/05/06 05:35:07;;;;;;;3.45;2.47;;;;;16.60;102419.00;;;;5050144;28;20291;-78
2022/05/06 05:37:35;;;;;;;3.60;2.53;;;;;16.60;102423.00;;;;5049818;28;20278;-77
2022/05/06 05:40:02;;;;;;;2.92;2.38;;;;;16.60;102423.00;;;;5049923;28;20245;-77
2022/05/06 05:42:29;;;;;;;4.43;3.15;;;;;16.60;102431.00;;;;5069885;28;20203;-77
2022/05/06 05:50:29;;;;;;;5.13;3.05;;;;;16.60;102433.00;;;;5069476;28;20221;-77
2022/05/06 05:52:58;;;;;;;4.22;3.40;;;;;16.60;102435.00;;;;5053804;28;20219;-77
2022/05/06 05:55:25;;;;;;;3.58;2.92;;;;;16.70;102436.00;;;;5049753;28;20196;-77
2022/05/06 05:57:52;;;;;;;6.85;3.17;;;;;16.70;102440.00;;;;5057223;28;20681;-77
2022/05/06 06:00:20;;;;;;;3.92;2.70;;;;;16.70;102438.00;;;;5068624;28;20204;-77
2022/05/06 06:02:48;;;;;;;3.88;2.65;;;;;16.70;102436.00;;;;5069355;28;20226;-77
2022/05/06 06:05:15;;;;;;;9.35;3.00;;;;;16.80;102439.00;;;;5070652;28;20199;-77
2022/05/06 06:07:43;;;;;;;5.50;3.00;;;;;16.80;102438.00;;;;5070325;28;20991;-77
2022/05/06 06:10:10;;;;;;;5.20;2.88;;;;;16.80;102435.00;;;;5069406;28;20210;-77
2022/05/06 06:12:39;;;;;;;3.92;3.20;;;;;16.70;102434.00;;;;5069991;28;20230;-77
2022/05/06 06:15:07;;;;;;;2.67;2.35;;;;;16.80;102435.00;;;;5060021;28;20680;-77
2022/05/06 06:17:35;;;;;;;3.40;3.00;;;;;16.80;102442.00;;;;5049867;28;20207;-77
2022/05/06 06:20:05;;;;;;;2.90;2.30;;;;;16.80;102446.00;;;;5050515;28;20204;-77
2022/05/06 06:22:32;;;;;;;3.90;3.22;;;;;16.90;102448.00;;;;5069868;28;20253;-77
2022/05/06 06:24:59;;;;;;;4.95;3.00;;;;;16.90;102455.00;;;;5070122;28;20283;-77
2022/05/06 06:27:28;;;;;;;4.20;3.20;;;;;16.90;102451.00;;;;5068159;28;20203;-77
2022/05/06 06:29:55;;;;;;;4.30;2.83;;;;;17.00;102456.00;;;;5070503;28;20243;-77
2022/05/06 06:32:22;;;;;;;3.85;3.08;;;;;17.00;102456.00;;;;5062229;28;20669;-77
2022/05/06 06:34:51;;;;;;;3.55;2.72;;;;;17.00;102454.00;;;;5070044;28;20217;-77
2022/05/06 06:37:21;;;;;;;3.88;3.35;;;;;17.00;102458.00;;;;5069836;28;20595;-77
2022/05/06 06:39:51;;;;;;;3.78;3.05;;;;;17.10;102464.00;;;;5069977;28;20257;-77
2022/05/06 06:42:19;;;;;;;3.53;3.15;;;;;17.10;102463.00;;;;5068460;28;20224;-77
2022/05/06 06:44:46;;;;;;;3.60;2.70;;;;;17.20;102468.00;;;;5069736;28;20309;-78
2022/05/06 06:47:14;;;;;;;4.18;3.40;;;;;17.20;102462.00;;;;5070253;28;20203;-77
2022/05/06 06:49:41;;;;;;;4.20;3.38;;;;;17.20;102466.00;;;;5063921;28;20210;-78
2022/05/06 06:52:09;;;;;;;3.78;3.05;;;;;17.30;102476.00;;;;5060032;28;20192;-77
2022/05/06 06:54:37;;;;;;;4.68;3.50;;;;;17.30;102474.00;;;;5049965;28;20294;-77
2022/05/06 06:57:05;;;;;;;3.45;3.10;;;;;17.40;102481.00;;;;5049565;28;20207;-77
2022/05/06 06:59:33;;;;;;;3.90;3.15;;;;;17.40;102489.00;;;;5049917;28;20199;-77
2022/05/06 07:02:00;;;;;;;4.57;3.45;;;;;17.50;102483.00;;;;5056129;28;20257;-77
2022/05/06 07:04:27;;;;;;;3.28;2.53;;;;;17.50;102490.00;;;;5049193;28;20291;-77
2022/05/06 07:12:25;;;;;;;3.78;3.05;;;;;17.60;102491.00;;;;5053190;28;20764;-77
2022/05/06 07:14:54;;;;;;;3.88;3.22;;;;;17.60;102494.00;;;;5055651;28;20195;-77
2022/05/06 07:17:22;;;;;;;3.53;2.92;;;;;17.70;102499.00;;;;5068120;28;20215;-77
2022/05/06 07:19:50;;;;;;;4.32;3.53;;;;;17.70;102495.00;;;;5067946;28;20191;-77
2022/05/06 07:22:17;;;;;;;5.03;3.83;;;;;17.80;102492.00;;;;5056105;28;20249;-77
2022/05/06 07:24:46;;;;;;;4.45;3.50;;;;;17.80;102486.00;;;;5070106;28;20194;-77
2022/05/06 07:27:13;;;;;;;4.70;3.55;;;;;17.90;102482.00;;;;5069247;28;20206;-77
2022/05/06 07:29:41;;;;;;;4.55;3.50;;;;;18.00;102486.00;;;;5069576;28;20191;-78
2022/05/06 07:32:10;;;;;;;4.70;3.45;;;;;18.10;102486.00;;;;5055539;28;20203;-78
2022/05/06 07:34:37;;;;;;;5.07;3.95;;;;;18.10;102490.00;;;;5048907;28;20227;-77
2022/05/06 07:37:05;;;;;;;4.15;3.63;;;;;18.20;102482.00;;;;5048863;28;20250;-77
2022/05/06 07:39:32;;;;;;;6.50;4.32;;;;;18.20;102485.00;;;;5048863;28;20617;-78
2022/05/06 07:42:01;;;;;;;5.28;3.88;;;;;18.30;102484.00;;;;5059767;28;20206;-77
2022/05/06 07:44:29;;;;;;;5.05;4.15;;;;;18.30;102482.00;;;;5068371;28;20760;-77
2022/05/06 07:46:56;;;;;;;4.85;3.83;;;;;18.40;102487.00;;;;5068257;28;20202;-77
2022/05/06 07:49:24;;;;;;;5.70;4.03;;;;;18.50;102480.00;;;;5068614;28;20281;-77
2022/05/06 07:51:52;;;;;;;5.18;4.15;;;;;18.60;102483.00;;;;5057547;28;20295;-77
2022/05/06 07:54:19;;;;;;;5.22;4.20;;;;;18.60;102492.00;;;;5048862;28;20215;-77
2022/05/06 07:56:46;;;;;;;5.45;4.30;;;;;18.70;102497.00;;;;5053206;28;20222;-77
2022/05/06 07:59:15;;;;;;;5.47;4.30;;;;;18.70;102493.00;;;;5068344;28;20206;-77
2022/05/06 08:04:37;;;;;;;5.00;3.65;;;;;18.80;102487.00;;;;5068010;28;20296;-77
2022/05/06 08:07:05;;;;;;;5.75;4.00;;;;;18.80;102493.00;;;;5068236;28;20206;-77
2022/05/06 08:09:33;;;;;;;5.07;4.13;;;;;18.90;102496.00;;;;5068482;28;20226;-77
2022/05/06 08:12:00;;;;;;;5.13;4.38;;;;;19.00;102495.00;;;;5057208;28;20250;-77
2022/05/06 08:14:29;;;;;;;4.68;3.90;;;;;19.00;102497.00;;;;5056683;28;20227;-77
2022/05/06 08:16:57;;;;;;;5.50;4.60;;;;;19.10;102492.00;;;;5048148;28;20203;-77
2022/05/06 08:19:24;;;;;;;5.18;4.47;;;;;19.20;102492.00;;;;5048104;28;20211;-77
2022/05/06 08:21:52;;;;;;;5.57;4.50;;;;;19.30;102489.00;;;;5047683;28;20257;-77
2022/05/06 08:24:20;;;;;;;6.85;4.78;;;;;19.40;102486.00;;;;5048454;28;20662;-77
2022/05/06 08:26:47;;;;;;;5.32;3.83;;;;;19.50;102484.00;;;;5048806;28;20196;-77
2022/05/06 08:29:15;;;;;;;4.85;4.13;;;;;19.60;102487.00;;;;5056625;28;20191;-77
2022/05/06 08:31:44;;;;;;;5.95;4.43;;;;;19.70;102483.00;;;;5059550;28;20269;-77
2022/05/06 08:34:13;;;;;;;4.72;3.72;;;;;19.70;102480.00;;;;5047854;28;20223;-77
2022/05/06 08:36:43;;;;;;;5.95;4.03;;;;;19.80;102488.00;;;;5047839;28;20626;-77
2022/05/06 08:39:12;;;;;;;4.85;3.47;;;;;19.90;102492.00;;;;5047741;28;20238;-77
2022/05/06 08:41:39;;;;;;;5.00;3.90;;;;;20.00;102489.00;;;;5047838;28;20202;-77
2022/05/06 08:52:32;;;;;;;4.13;3.72;;;;;20.60;102483.00;;;;5051366;28;20226;-77
2022/05/06 08:55:00;;;;;;;4.25;3.85;;;;;20.70;102485.00;;;;5052282;28;20235;-77
2022/05/06 08:57:27;;;;;;;4.00;3.60;;;;;20.90;102473.00;;;;5051853;28;20199;-76
2022/05/06 08:59:55;;;;;;;4.50;3.80;;;;;21.00;102474.00;;;;5055351;28;20191;-76
2022/05/06 09:02:24;;;;;;;3.80;3.40;;;;;21.10;102473.00;;;;5070780;28;20203;-77
2022/05/06 09:04:51;;;;;;;4.28;3.60;;;;;21.30;102472.00;;;;5070147;28;20222;-77
2022/05/06 09:07:21;;;;;;;3.90;3.45;;;;;21.50;102476.00;;;;5071686;28;20270;-77
2022/05/06 09:10:14;;;;;;;3.72;3.38;;;;;21.60;102477.00;;;;5071402;28;20199;-77
2022/05/06 09:12:41;;;;;;;4.32;3.30;;;;;21.80;102476.00;;;;5056206;28;20314;-77
2022/05/06 09:17:57;;;;;;;4.10;3.70;;;;;22.10;102477.00;;;;5052115;28;20314;-77
2022/05/06 09:20:26;;;;;;;3.90;3.50;;;;;22.30;102466.00;;;;5070794;28;20218;-77
2022/05/06 09:22:54;;;;;;;4.20;3.78;;;;;22.50;102471.00;;;;5055628;28;20238;-76
2022/05/06 09:25:40;;;;;;;4.10;3.55;;;;;22.60;102465.00;;;;5051523;28;20210;-77
2022/05/06 09:28:20;;;;;;;5.13;4.07;;;;;22.90;102468.00;;;;5050794;28;20202;-77
2022/05/06 09:31:00;;;;;;;3.60;3.30;;;;;23.00;102466.00;;;;5050082;28;20200;-77
2022/05/06 09:33:29;;;;;;;5.00;3.63;;;;;23.20;102467.00;;;;5050398;28;20587;-77
2022/05/06 09:35:57;;;;;;;4.22;3.60;;;;;23.40;102465.00;;;;5050976;28;20223;-77
2022/05/06 09:38:26;;;;;;;4.20;3.45;;;;;23.60;102464.00;;;;5051365;28;20555;-77
2022/05/06 09:40:53;;;;;;;4.05;3.40;;;;;23.70;102470.00;;;;5057935;28;20195;-77
2022/05/06 09:43:21;;;;;;;4.05;3.67;;;;;23.90;102463.00;;;;5071367;28;20277;-77
2022/05/06 09:45:49;;;;;;;4.47;3.17;;;;;24.10;102464.00;;;;5052137;28;20219;-78
2022/05/06 09:48:16;;;;;;;3.50;3.20;;;;;24.20;102471.00;;;;5051298;28;20213;-77
2022/05/06 09:50:47;;;;;;;4.43;3.78;;;;;24.30;102471.00;;;;5054914;28;20195;-77
2022/05/06 09:53:15;;;;;;;4.70;3.65;;;;;24.50;102464.00;;;;5052041;28;22098;-77
2022/05/06 09:55:44;;;;;;;4.05;3.65;;;;;24.60;102466.00;;;;5051001;28;20208;-77
2022/05/06 09:58:14;;;;;;;5.07;4.00;;;;;24.70;102468.00;;;;5050643;28;20738;-77
2022/05/06 10:00:42;;;;;;;3.65;3.35;;;;;24.90;102464.00;;;;5053619;28;20196;-77
2022/05/06 10:03:10;;;;;;;4.03;3.63;;;;;25.00;102473.00;;;;5070168;28;20206;-77
2022/05/06 10:05:38;;;;;;;4.32;3.38;;;;;25.10;102463.00;;;;5070244;28;20214;-77
2022/05/06 10:08:12;;;;;;;4.05;3.35;;;;;25.20;102465.00;;;;5069557;28;20590;-77
2022/05/06 10:10:45;;;;;;;4.32;3.60;;;;;25.30;102470.00;;;;5052279;28;20210;-77
2022/05/06 10:13:16;;;;;;;4.15;3.75;;;;;25.50;102462.00;;;;5069368;28;20203;-77
2022/05/06 10:15:48;;;;;;;4.63;3.33;;;;;25.60;102456.00;;;;5055469;28;20214;-77
2022/05/06 10:18:33;;;;;;;4.47;3.75;;;;;25.60;102450.00;;;;5050233;28;20200;-78
2022/05/06 10:21:04;;;;;;;4.30;3.75;;;;;25.80;102447.00;;;;5049633;28;20282;-77
2022/05/06 10:23:46;;;;;;;5.05;4.28;;;;;25.90;102444.00;;;;5049928;28;20207;-77
2022/05/06 10:26:45;;;;;;;4.55;4.10;;;;;26.10;102452.00;;;;5049773;28;20290;-77
2022/05/06 10:32:56;;;;;;;4.63;3.38;;;;;26.30;102439.00;;;;5050151;28;20226;-77
2022/05/06 10:35:40;;;;;;;4.82;3.88;;;;;26.40;102436.00;;;;5049641;28;20243;-77
2022/05/06 10:38:19;;;;;;;4.65;4.15;;;;;26.60;102429.00;;;;5049796;28;20192;-78
2022/05/06 10:40:57;;;;;;;5.55;4.57;;;;;26.70;102430.00;;;;5049758;28;20264;-78
2022/05/06 10:43:55;;;;;;;4.57;3.80;;;;;26.80;102438.00;;;;5049905;28;20245;-76
2022/05/06 10:46:40;;;;;;;4.40;3.97;;;;;26.90;102438.00;;;;5051321;28;20893;-77
2022/05/06 10:49:51;;;;;;;4.63;4.18;;;;;26.90;102435.00;;;;5070253;28;20187;-77
2022/05/06 10:52:44;;;;;;;4.80;4.03;;;;;27.00;102429.00;;;;5058542;28;20685;-77
2022/05/06 10:55:13;;;;;;;4.18;3.78;;;;;27.20;102427.00;;;;5049218;28;20266;-76
2022/05/06 10:58:04;;;;;;;5.68;4.20;;;;;27.10;102427.00;;;;5049506;28;20207;-77
2022/05/06 11:00:33;;;;;;;6.95;4.60;;;;;27.20;102428.00;;;;5053629;28;20226;-78
2022/05/06 11:03:01;;;;;;;4.47;4.07;;;;;27.20;102429.00;;;;5069100;28;20198;-77
2022/05/06 11:05:30;;;;;;;6.13;4.85;;;;;27.30;102428.00;;;;5068332;28;20227;-77
2022/05/06 11:08:00;;;;;;;5.93;4.68;;;;;27.30;102434.00;;;;5069031;28;20207;-77
2022/05/06 11:10:29;;;;;;;4.82;4.25;;;;;27.30;102427.00;;;;5068982;28;20195;-76
2022/05/06 11:12:58;;;;;;;5.05;4.55;;;;;27.30;102426.00;;;;5049846;28;20222;-77
2022/05/06 11:15:29;;;;;;;5.97;4.07;;;;;27.30;102425.00;;;;5059305;28;20223;-77
2022/05/06 11:17:58;;;;;;;6.05;4.70;;;;;27.40;102417.00;;;;5069845;28;20936;-77
2022/05/06 11:20:28;;;;;;;5.82;4.28;;;;;27.50;102419.00;;;;5065629;28;20669;-77
2022/05/06 11:23:00;;;;;;;5.93;4.93;;;;;27.50;102417.00;;;;5066422;28;20211;-77
2022/05/06 11:25:30;;;;;;;5.05;3.85;;;;;27.50;102417.00;;;;5068936;28;20199;-77
2022/05/06 11:27:59;;;;;;;5.78;4.63;;;;;27.60;102416.00;;;;5068296;28;20194;-77
2022/05/06 11:30:30;;;;;;;6.10;4.70;;;;;27.70;102411.00;;;;5048402;28;20204;-77
2022/05/06 11:32:58;;;;;;;5.53;4.30;;;;;27.70;102407.00;;;;5048702;28;20737;-77
2022/05/06 11:35:32;;;;;;;4.93;3.50;;;;;27.70;102410.00;;;;5048240;28;20235;-77
2022/05/06 11:38:00;;;;;;;5.38;4.78;;;;;27.80;102404.00;;;;5055287;28;20205;-76
2022/05/06 11:40:36;;;;;;;7.53;4.90;;;;;27.80;102410.00;;;;5048912;28;20208;-77
2022/05/06 11:43:19;;;;;;;7.97;5.53;;;;;27.80;102410.00;;;;5048725;28;20234;-77
2022/05/06 11:48:40;;;;;;;6.75;4.18;;;;;27.80;102404.00;;;;5053277;28;20249;-77
2022/05/06 11:51:08;;;;;;;5.88;4.45;;;;;27.80;102401.00;;;;5067650;28;20199;-77
2022/05/06 11:53:35;;;;;;;6.82;5.03;;;;;27.80;102410.00;;;;5048610;28;20623;-77
2022/05/06 11:56:03;;;;;;;7.38;5.30;;;;;27.80;102396.00;;;;5049002;28;20207;-77
2022/05/06 11:58:30;;;;;;;6.07;4.72;;;;;27.80;102399.00;;;;5048227;28;20192;-77
2022/05/06 12:00:59;;;;;;;10.75;6.80;;;;;27.80;102388.00;;;;5060085;28;20198;-76
2022/05/06 12:03:28;;;;;;;11.15;6.60;;;;;27.90;102391.00;;;;5068546;28;20207;-76
2022/05/06 12:06:07;;;;;;;9.38;7.35;;;;;27.80;102391.00;;;;5068195;28;20229;-76
2022/05/06 12:08:36;;;;;;;8.90;6.32;;;;;27.90;102374.00;;;;5062736;28;20276;-76
2022/05/06 12:11:06;;;;;;;9.65;6.70;;;;;27.90;102373.00;;;;5048432;28;20199;-77
2022/05/06 12:13:35;;;;;;;9.90;7.15;;;;;28.00;102387.00;;;;5068395;28;20643;-76
2022/05/06 12:16:12;;;;;;;7.55;5.70;;;;;28.00;102387.00;;;;5051585;28;20257;-76
2022/05/06 12:18:51;;;;;;;10.48;6.85;;;;;28.00;102374.00;;;;5052515;28;20187;-76
2022/05/06 12:21:21;;;;;;;8.50;6.53;;;;;28.10;102385.00;;;;5067388;28;20206;-76
2022/05/06 12:23:53;;;;;;;9.70;6.85;;;;;28.10;102383.00;;;;5068540;28;20202;-77
2022/05/06 12:26:38;;;;;;;9.13;6.65;;;;;28.00;102382.00;;;;5068275;28;20248;-76
2022/05/06 12:29:19;;;;;;;10.32;6.85;;;;;28.10;102370.00;;;;5071270;28;20199;-77
2022/05/06 12:31:48;;;;;;;9.50;6.82;;;;;28.20;102386.00;;;;5071311;28;20277;-77
2022/05/06 12:34:16;;;;;;;12.35;7.78;;;;;28.20;102385.00;;;;5072327;28;20311;-76
2022/05/06 12:36:43;;;;;;;14.10;7.85;;;;;28.20;102378.00;;;;5071174;28;20762;-76
2022/05/06 12:39:21;;;;;;;10.23;7.75;;;;;28.10;102374.00;;;;5063177;28;20203;-77
2022/05/06 12:41:49;;;;;;;8.75;6.63;;;;;28.30;102370.00;;;;5052078;28;20198;-77
2022/05/06 12:44:18;;;;;;;12.57;9.05;;;;;28.30;102374.00;;;;5051565;28;20247;-76
2022/05/06 12:46:48;;;;;;;10.75;7.03;;;;;28.40;102368.00;;;;5064963;28;20211;-77
2022/05/06 12:52:03;;;;;;;10.70;7.38;;;;;28.50;102359.00;;;;5062994;28;20326;-76
2022/05/06 12:54:30;;;;;;;11.73;7.75;;;;;28.50;102360.00;;;;5050792;28;21110;-77
2022/05/06 12:56:57;;;;;;;11.32;7.80;;;;;28.60;102355.00;;;;5051071;28;20199;-77
2022/05/06 12:59:25;;;;;;;9.50;7.35;;;;;28.60;102357.00;;;;5051058;28;20586;-76
2022/05/06 13:01:54;;;;;;;11.65;6.82;;;;;28.60;102356.00;;;;5051204;28;20207;-76